createdAt,value
2018-03-29T00:00:00.752Z,8.7
2018-03-29T00:00:41.289Z,8.83
2018-03-29T00:01:21.662Z,8.79
2018-03-29T00:02:02.068Z,8.88
2018-03-29T00:02:42.451Z,8.96
2018-03-29T00:03:22.859Z,8.97
2018-03-29T00:04:03.246Z,8.94
2018-03-29T00:05:50.652Z,8.94
2018-03-29T00:06:32.106Z,8.93
2018-03-29T00:07:12.492Z,8.91
2018-03-29T00:07:52.895Z,8.94
2018-03-29T00:08:33.318Z,8.89
2018-03-29T00:09:13.694Z,8.91
2018-03-29T00:09:54.082Z,8.88
2018-03-29T00:10:34.470Z,8.76
2018-03-29T00:11:14.971Z,8.8
2018-03-29T00:11:55.277Z,8.8
2018-03-29T00:12:35.673Z,8.78
2018-03-29T00:13:16.140Z,8.78
2018-03-29T00:13:56.515Z,8.85
2018-03-29T00:14:36.962Z,8.86
2018-03-29T00:15:17.421Z,8.93
2018-03-29T00:15:57.760Z,8.93
2018-03-29T00:16:38.143Z,8.88
2018-03-29T00:17:18.508Z,8.88
2018-03-29T00:17:58.969Z,8.94
2018-03-29T00:18:39.346Z,8.94
2018-03-29T00:19:19.757Z,8.94
2018-03-29T00:20:00.151Z,9
2018-03-29T00:20:40.552Z,8.98
2018-03-29T00:21:20.938Z,9
2018-03-29T00:22:01.366Z,8.94
2018-03-29T00:22:41.778Z,8.97
2018-03-29T00:23:22.159Z,8.94
2018-03-29T00:24:03.111Z,8.93
2018-03-29T00:24:43.510Z,8.93
2018-03-29T00:25:23.955Z,8.93
2018-03-29T00:26:04.354Z,8.91
2018-03-29T00:28:03.534Z,8.75
2018-03-29T00:28:44.079Z,8.68
2018-03-29T00:29:24.385Z,8.7
2018-03-29T00:30:04.786Z,8.6
2018-03-29T00:30:45.209Z,8.61
2018-03-29T00:31:25.628Z,8.71
2018-03-29T00:32:06.026Z,8.78
2018-03-29T00:32:46.416Z,8.76
2018-03-29T00:33:26.821Z,8.75
2018-03-29T00:34:07.242Z,8.78
2018-03-29T00:34:47.646Z,8.85
2018-03-29T00:35:28.034Z,8.96
2018-03-29T00:36:08.474Z,8.88
2018-03-29T00:36:48.853Z,8.96
2018-03-29T00:37:29.241Z,9.15
2018-03-29T00:38:09.660Z,9.13
2018-03-29T00:38:50.054Z,9.23
2018-03-29T00:39:30.449Z,9.22
2018-03-29T00:40:10.895Z,9.3
2018-03-29T00:40:51.260Z,9.31
2018-03-29T00:41:31.683Z,9.32
2018-03-29T00:42:12.065Z,9.38
2018-03-29T00:42:52.526Z,9.4
2018-03-29T00:44:42.369Z,9.37
2018-03-29T00:45:24.002Z,9.48
2018-03-29T00:46:04.457Z,9.4
2018-03-29T00:46:44.791Z,9.32
2018-03-29T00:47:25.182Z,9.32
2018-03-29T00:48:05.775Z,9.38
2018-03-29T00:48:46.146Z,9.34
2018-03-29T00:49:26.539Z,9.38
2018-03-29T00:50:06.935Z,9.38
2018-03-29T00:50:47.366Z,9.52
2018-03-29T00:51:27.724Z,9.52
2018-03-29T00:52:08.119Z,9.59
2018-03-29T00:52:48.498Z,9.63
2018-03-29T00:53:28.912Z,9.62
2018-03-29T00:54:09.288Z,9.62
2018-03-29T00:54:49.701Z,9.6
2018-03-29T00:55:30.078Z,9.6
2018-03-29T00:56:11.348Z,9.52
2018-03-29T00:56:50.921Z,9.5
2018-03-29T00:57:31.295Z,9.41
2018-03-29T00:58:11.726Z,9.31
2018-03-29T00:58:52.151Z,9.31
2018-03-29T00:59:32.570Z,9.17
2018-03-29T01:00:12.919Z,9.15
2018-03-29T01:00:53.308Z,9.2
2018-03-29T01:01:33.705Z,9.24
2018-03-29T01:02:14.089Z,9.27
2018-03-29T01:02:54.511Z,9.2
2018-03-29T01:03:34.935Z,9.3
2018-03-29T01:04:15.344Z,9.34
2018-03-29T01:04:55.739Z,9.32
2018-03-29T01:05:36.138Z,9.41
2018-03-29T01:06:16.517Z,9.52
2018-03-29T01:06:56.910Z,9.52
2018-03-29T01:07:37.326Z,9.53
2018-03-29T01:08:17.704Z,9.48
2018-03-29T01:08:58.114Z,9.41
2018-03-29T01:09:38.580Z,9.44
2018-03-29T01:10:18.942Z,9.4
2018-03-29T01:10:59.285Z,9.38
2018-03-29T01:11:39.685Z,9.42
2018-03-29T01:13:16.931Z,9.4
2018-03-29T01:13:57.370Z,9.3
2018-03-29T01:14:37.818Z,9.34
2018-03-29T01:15:18.216Z,9.27
2018-03-29T01:15:58.609Z,9.27
2018-03-29T01:16:39.016Z,9.32
2018-03-29T01:17:19.413Z,9.22
2018-03-29T01:17:59.803Z,9.17
2018-03-29T01:18:40.197Z,9.2
2018-03-29T01:19:20.594Z,9.13
2018-03-29T01:20:01.028Z,9.15
2018-03-29T01:20:41.393Z,9.23
2018-03-29T01:21:21.804Z,9.19
2018-03-29T01:22:02.227Z,9.27
2018-03-29T01:22:42.625Z,9.2
2018-03-29T01:23:23.045Z,9.2
2018-03-29T01:24:03.451Z,9.22
2018-03-29T01:24:43.841Z,9.2
2018-03-29T01:25:24.252Z,9.35
2018-03-29T01:26:04.661Z,9.31
2018-03-29T01:26:45.094Z,9.32
2018-03-29T01:27:25.500Z,9.37
2018-03-29T01:28:05.908Z,9.48
2018-03-29T01:28:46.301Z,9.45
2018-03-29T01:29:26.713Z,9.42
2018-03-29T01:30:07.128Z,9.48
2018-03-29T01:30:47.519Z,9.42
2018-03-29T01:31:27.944Z,9.27
2018-03-29T01:32:08.339Z,9.31
2018-03-29T01:32:48.709Z,9.32
2018-03-29T01:33:29.089Z,9.34
2018-03-29T01:34:09.532Z,9.31
2018-03-29T01:34:49.934Z,9.34
2018-03-29T01:35:30.331Z,9.31
2018-03-29T01:36:10.738Z,9.31
2018-03-29T01:36:51.154Z,9.27
2018-03-29T01:37:31.554Z,9.35
2018-03-29T01:38:11.955Z,9.3
2018-03-29T01:38:52.388Z,9.24
2018-03-29T01:39:32.738Z,9.17
2018-03-29T01:40:13.180Z,9.31
2018-03-29T01:40:53.529Z,9.3
2018-03-29T01:41:33.918Z,9.26
2018-03-29T01:42:14.356Z,9.23
2018-03-29T01:42:54.733Z,9.2
2018-03-29T01:43:35.149Z,9.24
2018-03-29T01:44:15.549Z,9.2
2018-03-29T01:44:55.947Z,9.16
2018-03-29T01:45:36.368Z,9.15
2018-03-29T01:46:16.756Z,9.2
2018-03-29T01:46:57.205Z,9.12
2018-03-29T01:47:37.543Z,9.16
2018-03-29T01:48:18.044Z,9.16
2018-03-29T01:48:58.365Z,9.2
2018-03-29T01:49:38.801Z,9.27
2018-03-29T01:50:19.228Z,9.3
2018-03-29T01:50:59.609Z,9.34
2018-03-29T01:51:39.998Z,9.3
2018-03-29T01:52:20.404Z,9.22
2018-03-29T01:54:18.007Z,9.2
2018-03-29T01:55:01.183Z,9.16
2018-03-29T01:55:40.581Z,9.27
2018-03-29T01:56:20.970Z,9.24
2018-03-29T01:57:01.372Z,9.24
2018-03-29T01:57:41.767Z,9.34
2018-03-29T01:58:22.196Z,9.3
2018-03-29T01:59:02.634Z,9.37
2018-03-29T01:59:43.019Z,9.44
2018-03-29T02:00:23.456Z,9.4
2018-03-29T02:01:03.804Z,9.22
2018-03-29T02:01:44.215Z,9.31
2018-03-29T02:02:24.612Z,9.15
2018-03-29T02:03:05.018Z,9.32
2018-03-29T02:03:45.462Z,9.34
2018-03-29T02:04:25.839Z,9.31
2018-03-29T02:05:06.256Z,9.27
2018-03-29T02:05:46.638Z,9.4
2018-03-29T02:06:27.057Z,9.38
2018-03-29T02:07:07.499Z,9.42
2018-03-29T02:07:48.072Z,9.26
2018-03-29T02:08:28.358Z,9.19
2018-03-29T02:09:08.748Z,9.24
2018-03-29T02:09:49.156Z,9.23
2018-03-29T02:10:29.601Z,9.27
2018-03-29T02:12:42.298Z,9.58
2018-03-29T02:13:23.797Z,9.58
2018-03-29T02:14:04.259Z,9.53
2018-03-29T02:14:44.636Z,9.62
2018-03-29T02:15:25.061Z,9.62
2018-03-29T02:17:12.629Z,9.8
2018-03-29T02:17:53.373Z,9.74
2018-03-29T02:18:33.744Z,9.78
2018-03-29T02:19:14.322Z,9.75
2018-03-29T02:19:54.736Z,9.88
2018-03-29T02:20:35.123Z,9.73
2018-03-29T02:22:12.681Z,9.86
2018-03-29T02:22:54.141Z,9.73
2018-03-29T02:23:34.579Z,9.75
2018-03-29T02:24:14.999Z,9.8
2018-03-29T02:24:55.428Z,9.56
2018-03-29T02:25:35.843Z,9.52
2018-03-29T02:26:16.264Z,9.48
2018-03-29T02:26:56.687Z,9.41
2018-03-29T02:27:37.120Z,9.41
2018-03-29T02:28:17.490Z,9.53
2018-03-29T02:28:57.894Z,9.53
2018-03-29T02:29:38.266Z,9.45
2018-03-29T02:30:18.678Z,9.5
2018-03-29T02:30:59.091Z,9.45
2018-03-29T02:31:39.572Z,9.49
2018-03-29T02:32:19.963Z,9.44
2018-03-29T02:33:00.376Z,9.4
2018-03-29T02:33:40.735Z,9.31
2018-03-29T02:34:21.124Z,9.24
2018-03-29T02:35:01.520Z,9.15
2018-03-29T02:35:41.916Z,9.08
2018-03-29T02:36:22.340Z,9.03
2018-03-29T02:37:03.183Z,8.94
2018-03-29T02:37:44.009Z,8.82
2018-03-29T02:38:24.496Z,8.85
2018-03-29T02:39:04.895Z,8.71
2018-03-29T02:39:45.294Z,8.73
2018-03-29T02:40:25.684Z,8.76
2018-03-29T02:41:06.100Z,8.91
2018-03-29T02:41:46.507Z,8.94
2018-03-29T02:42:26.927Z,8.94
2018-03-29T02:43:07.324Z,8.91
2018-03-29T02:43:47.783Z,8.93
2018-03-29T02:44:28.183Z,8.94
2018-03-29T02:45:08.737Z,8.97
2018-03-29T02:45:49.122Z,8.93
2018-03-29T02:46:29.521Z,8.89
2018-03-29T02:47:09.952Z,8.89
2018-03-29T02:47:50.360Z,8.93
2018-03-29T02:48:30.784Z,8.91
2018-03-29T02:49:11.190Z,8.86
2018-03-29T02:49:51.598Z,8.89
2018-03-29T02:50:31.999Z,8.86
2018-03-29T02:51:12.405Z,8.8
2018-03-29T02:51:52.800Z,8.83
2018-03-29T02:52:33.191Z,8.83
2018-03-29T02:53:13.574Z,8.8
2018-03-29T02:53:53.980Z,8.8
2018-03-29T02:55:32.134Z,8.71
2018-03-29T02:56:12.635Z,8.73
2018-03-29T02:56:52.856Z,8.76
2018-03-29T02:57:33.247Z,8.65
2018-03-29T02:58:13.638Z,8.73
2018-03-29T02:58:54.056Z,8.85
2018-03-29T02:59:34.453Z,8.85
2018-03-29T03:00:14.877Z,8.82
2018-03-29T03:00:55.281Z,8.78
2018-03-29T03:01:35.711Z,8.76
2018-03-29T03:02:16.093Z,8.78
2018-03-29T03:02:56.498Z,8.82
2018-03-29T03:03:36.902Z,8.76
2018-03-29T03:04:17.318Z,8.75
2018-03-29T03:04:57.706Z,8.73
2018-03-29T03:05:38.113Z,8.75
2018-03-29T03:06:18.515Z,8.75
2018-03-29T03:06:58.929Z,8.73
2018-03-29T03:07:39.357Z,8.71
2018-03-29T03:08:19.811Z,8.67
2018-03-29T03:09:00.188Z,8.68
2018-03-29T03:09:40.564Z,8.67
2018-03-29T03:10:20.943Z,8.55
2018-03-29T03:11:01.376Z,8.65
2018-03-29T03:11:41.789Z,8.68
2018-03-29T03:12:22.398Z,8.75
2018-03-29T03:13:02.724Z,8.76
2018-03-29T03:13:43.150Z,8.79
2018-03-29T03:14:23.538Z,8.78
2018-03-29T03:15:03.911Z,8.86
2018-03-29T03:15:44.343Z,8.96
2018-03-29T03:16:24.769Z,8.76
2018-03-29T03:17:05.196Z,8.89
2018-03-29T03:17:45.633Z,8.75
2018-03-29T03:18:26.028Z,8.93
2018-03-29T03:19:06.462Z,8.93
2018-03-29T03:19:46.796Z,8.91
2018-03-29T03:20:27.190Z,8.79
2018-03-29T03:21:07.626Z,8.82
2018-03-29T03:21:48.033Z,8.78
2018-03-29T03:22:28.440Z,8.75
2018-03-29T03:23:08.829Z,8.65
2018-03-29T03:23:49.265Z,8.71
2018-03-29T03:24:29.695Z,8.93
2018-03-29T03:25:10.084Z,8.88
2018-03-29T03:25:50.500Z,8.78
2018-03-29T03:26:30.917Z,8.86
2018-03-29T03:27:11.316Z,8.88
2018-03-29T03:27:51.729Z,8.85
2018-03-29T03:28:32.089Z,8.8
2018-03-29T03:29:12.474Z,8.79
2018-03-29T03:29:52.864Z,8.8
2018-03-29T03:30:33.264Z,8.76
2018-03-29T03:31:13.625Z,8.73
2018-03-29T03:31:54.003Z,8.75
2018-03-29T03:32:34.475Z,8.64
2018-03-29T03:33:14.832Z,8.61
2018-03-29T03:33:55.212Z,8.64
2018-03-29T03:34:36.025Z,8.64
2018-03-29T03:35:16.418Z,8.6
2018-03-29T03:35:56.826Z,8.5
2018-03-29T03:36:37.235Z,8.49
2018-03-29T03:37:17.660Z,8.58
2018-03-29T03:37:58.055Z,8.45
2018-03-29T03:38:38.464Z,8.52
2018-03-29T03:39:18.854Z,8.39
2018-03-29T03:39:59.242Z,8.43
2018-03-29T03:40:39.647Z,8.37
2018-03-29T03:41:20.046Z,8.31
2018-03-29T03:42:00.440Z,8.25
2018-03-29T03:42:40.844Z,8.39
2018-03-29T03:43:21.192Z,8.4
2018-03-29T03:44:01.610Z,8.27
2018-03-29T03:44:41.967Z,8.36
2018-03-29T03:45:22.355Z,8.39
2018-03-29T03:46:02.743Z,8.34
2018-03-29T03:46:43.153Z,8.32
2018-03-29T03:47:23.545Z,8.34
2018-03-29T03:48:03.940Z,8.31
2018-03-29T03:48:44.345Z,8.31
2018-03-29T03:49:24.729Z,8.28
2018-03-29T03:50:05.116Z,8.32
2018-03-29T03:50:45.517Z,8.28
2018-03-29T03:51:25.944Z,8.25
2018-03-29T03:52:06.340Z,8.25
2018-03-29T03:52:46.742Z,8.22
2018-03-29T03:53:27.127Z,8.14
2018-03-29T03:55:39.597Z,8.14
2018-03-29T03:56:20.012Z,8.29
2018-03-29T03:57:00.407Z,8.22
2018-03-29T03:57:40.826Z,8.18
2018-03-29T03:58:21.243Z,8.14
2018-03-29T03:59:01.673Z,8.27
2018-03-29T03:59:42.079Z,8.28
2018-03-29T04:00:22.493Z,8.27
2018-03-29T04:01:02.933Z,8.27
2018-03-29T04:01:43.337Z,8.28
2018-03-29T04:02:23.755Z,8.25
2018-03-29T04:03:04.151Z,8.18
2018-03-29T04:03:44.563Z,8.25
2018-03-29T04:04:24.996Z,8.28
2018-03-29T04:05:05.408Z,8.31
2018-03-29T04:05:45.835Z,8.28
2018-03-29T04:06:26.255Z,8.29
2018-03-29T04:43:59.974Z,6.21
2018-03-29T04:44:40.136Z,6.24
2018-03-29T04:45:20.550Z,6.2
2018-03-29T04:46:00.979Z,6.21
2018-03-29T04:46:41.390Z,6.13
2018-03-29T04:47:21.800Z,6.02
2018-03-29T04:48:02.202Z,6.03
2018-03-29T04:48:42.607Z,6.01
2018-03-29T04:49:23.026Z,5.9
2018-03-29T04:50:03.428Z,5.93
2018-03-29T04:50:43.812Z,5.92
2018-03-29T04:51:24.229Z,5.9
2018-03-29T04:52:04.647Z,5.92
2018-03-29T04:52:45.058Z,5.92
2018-03-29T04:53:25.485Z,5.96
2018-03-29T04:54:05.916Z,5.93
2018-03-29T04:54:46.330Z,5.93
2018-03-29T04:55:26.756Z,5.95
2018-03-29T04:56:07.161Z,5.87
2018-03-29T04:56:47.533Z,5.9
2018-03-29T04:57:27.942Z,5.87
2018-03-29T04:58:08.382Z,5.9
2018-03-29T04:58:48.771Z,5.92
2018-03-29T04:59:29.162Z,5.88
2018-03-29T05:00:09.601Z,6.05
2018-03-29T05:00:49.972Z,6.1
2018-03-29T05:01:30.405Z,6.16
2018-03-29T05:02:10.838Z,6.16
2018-03-29T05:02:51.238Z,6.17
2018-03-29T05:03:31.695Z,6.06
2018-03-29T05:04:12.060Z,6.19
2018-03-29T05:04:52.494Z,6.14
2018-03-29T05:05:32.896Z,6.08
2018-03-29T05:06:13.322Z,6.14
2018-03-29T05:06:53.753Z,6.17
2018-03-29T05:07:34.186Z,6.32
2018-03-29T05:08:14.591Z,6.24
2018-03-29T05:08:55.017Z,6.25
2018-03-29T05:09:35.442Z,6.32
2018-03-29T05:10:15.876Z,6.42
2018-03-29T05:10:56.270Z,6.5
2018-03-29T05:11:36.668Z,6.45
2018-03-29T05:12:17.084Z,6.57
2018-03-29T05:12:57.524Z,6.51
2018-03-29T05:13:37.923Z,6.53
2018-03-29T05:14:18.355Z,6.6
2018-03-29T05:14:58.784Z,6.58
2018-03-29T05:15:39.211Z,6.6
2018-03-29T05:16:19.646Z,6.6
2018-03-29T05:17:00.102Z,6.51
2018-03-29T05:17:40.494Z,6.57
2018-03-29T05:18:20.935Z,6.55
2018-03-29T05:19:01.342Z,6.53
2018-03-29T05:19:41.753Z,6.6
2018-03-29T05:20:22.183Z,6.68
2018-03-29T05:21:02.598Z,6.68
2018-03-29T05:21:43.008Z,6.61
2018-03-29T05:22:23.421Z,6.79
2018-03-29T05:23:03.832Z,6.75
2018-03-29T05:23:44.253Z,6.79
2018-03-29T05:24:24.685Z,6.83
2018-03-29T05:25:05.192Z,6.83
2018-03-29T05:25:45.653Z,6.82
2018-03-29T05:26:26.085Z,6.81
2018-03-29T05:27:06.480Z,6.78
2018-03-29T05:27:46.884Z,6.71
2018-03-29T05:28:27.306Z,6.64
2018-03-29T05:29:07.738Z,6.65
2018-03-29T05:29:48.206Z,6.76
2018-03-29T05:30:28.620Z,6.65
2018-03-29T05:31:09.059Z,6.78
2018-03-29T05:31:49.464Z,6.69
2018-03-29T05:32:29.896Z,6.64
2018-03-29T05:33:10.319Z,6.64
2018-03-29T05:33:50.742Z,6.58
2018-03-29T05:34:31.164Z,6.63
2018-03-29T05:35:11.591Z,6.64
2018-03-29T05:35:52.017Z,6.57
2018-03-29T05:36:32.437Z,6.54
2018-03-29T05:37:12.855Z,6.53
2018-03-29T05:37:53.290Z,6.54
2018-03-29T05:38:33.724Z,6.53
2018-03-29T05:39:14.161Z,6.64
2018-03-29T05:39:54.576Z,6.64
2018-03-29T05:40:34.985Z,6.71
2018-03-29T05:41:15.392Z,6.69
2018-03-29T05:41:55.837Z,6.61
2018-03-29T05:42:36.243Z,6.71
2018-03-29T05:43:16.662Z,6.69
2018-03-29T05:43:57.088Z,6.65
2018-03-29T05:44:37.524Z,6.73
2018-03-29T05:45:17.940Z,6.69
2018-03-29T05:45:58.432Z,6.65
2018-03-29T05:46:38.799Z,6.65
2018-03-29T05:47:19.205Z,6.65
2018-03-29T05:47:59.689Z,6.72
2018-03-29T05:48:40.154Z,6.57
2018-03-29T05:49:20.573Z,6.57
2018-03-29T05:50:00.987Z,6.51
2018-03-29T05:50:41.414Z,6.53
2018-03-29T05:51:21.827Z,6.48
2018-03-29T05:52:02.246Z,6.46
2018-03-29T05:52:42.680Z,6.46
2018-03-29T05:53:23.112Z,6.46
2018-03-29T05:54:03.556Z,6.36
2018-03-29T05:54:43.934Z,6.35
2018-03-29T05:55:24.352Z,6.27
2018-03-29T05:56:04.761Z,6.3
2018-03-29T05:56:45.180Z,6.39
2018-03-29T05:57:25.580Z,6.4
2018-03-29T05:58:05.988Z,6.48
2018-03-29T05:58:46.376Z,6.48
2018-03-29T05:59:26.805Z,6.45
2018-03-29T06:00:07.224Z,6.5
2018-03-29T06:00:47.594Z,6.51
2018-03-29T06:01:28.022Z,6.46
2018-03-29T06:02:08.416Z,6.5
2018-03-29T06:02:48.832Z,6.5
2018-03-29T06:03:29.421Z,6.54
2018-03-29T06:04:09.698Z,6.55
2018-03-29T06:04:50.084Z,6.57
2018-03-29T06:05:30.533Z,6.48
2018-03-29T06:06:10.970Z,6.53
2018-03-29T06:06:51.401Z,6.45
2018-03-29T06:07:31.850Z,6.43
2018-03-29T06:08:12.253Z,6.43
2018-03-29T06:08:52.911Z,6.46
2018-03-29T06:09:33.738Z,6.43
2018-03-29T06:10:14.160Z,6.38
2018-03-29T06:10:54.627Z,6.36
2018-03-29T06:11:35.034Z,6.38
2018-03-29T06:12:15.443Z,6.33
2018-03-29T06:12:55.892Z,6.4
2018-03-29T06:13:36.318Z,6.35
2018-03-29T06:14:16.745Z,6.25
2018-03-29T06:14:57.136Z,6.36
2018-03-29T06:15:37.533Z,6.36
2018-03-29T06:16:17.965Z,6.38
2018-03-29T06:16:58.389Z,6.38
2018-03-29T06:17:38.820Z,6.33
2018-03-29T06:18:19.230Z,6.38
2018-03-29T06:18:59.660Z,6.4
2018-03-29T06:19:40.089Z,6.46
2018-03-29T06:20:20.505Z,6.54
2018-03-29T06:21:00.943Z,6.55
2018-03-29T06:21:41.343Z,6.57
2018-03-29T06:22:21.759Z,6.58
2018-03-29T06:23:02.158Z,6.65
2018-03-29T06:23:42.552Z,6.68
2018-03-29T06:24:22.942Z,6.64
2018-03-29T06:25:03.326Z,6.61
2018-03-29T06:25:43.738Z,6.71
2018-03-29T06:26:24.166Z,6.73
2018-03-29T06:27:04.524Z,6.76
2018-03-29T06:27:44.921Z,6.79
2018-03-29T06:28:25.320Z,6.81
2018-03-29T06:29:05.766Z,6.79
2018-03-29T06:29:46.201Z,6.75
2018-03-29T06:30:26.650Z,6.83
2018-03-29T06:31:07.061Z,6.79
2018-03-29T06:31:47.481Z,6.79
2018-03-29T06:32:27.875Z,6.76
2018-03-29T06:33:08.292Z,6.81
2018-03-29T06:33:48.723Z,6.76
2018-03-29T06:34:29.137Z,6.78
2018-03-29T06:35:09.628Z,6.75
2018-03-29T06:35:49.968Z,6.78
2018-03-29T06:36:30.391Z,6.81
2018-03-29T06:37:10.802Z,6.78
2018-03-29T06:37:51.209Z,6.91
2018-03-29T06:38:31.608Z,6.9
2018-03-29T06:39:12.029Z,6.83
2018-03-29T06:39:52.450Z,6.94
2018-03-29T06:40:32.881Z,6.96
2018-03-29T06:41:13.222Z,6.94
2018-03-29T06:41:53.587Z,7.04
2018-03-29T06:42:33.973Z,7.07
2018-03-29T06:43:14.376Z,7.01
2018-03-29T06:43:54.779Z,7
2018-03-29T06:44:36.082Z,7.11
2018-03-29T06:45:16.548Z,7.15
2018-03-29T06:45:57.305Z,7.15
2018-03-29T06:46:37.726Z,7.12
2018-03-29T06:47:18.194Z,7.24
2018-03-29T06:47:58.639Z,7.26
2018-03-29T06:48:39.125Z,7.24
2018-03-29T06:49:19.558Z,7.33
2018-03-29T06:50:00.005Z,7.3
2018-03-29T06:50:40.396Z,7.54
2018-03-29T06:51:20.867Z,7.55
2018-03-29T06:52:01.365Z,7.62
2018-03-29T06:52:41.877Z,7.66
2018-03-29T06:53:22.334Z,7.74
2018-03-29T06:54:02.816Z,7.81
2018-03-29T06:54:43.300Z,7.92
2018-03-29T06:55:24.690Z,7.94
2018-03-29T06:56:04.396Z,8.06
2018-03-29T06:56:44.870Z,8.1
2018-03-29T06:57:25.393Z,8.12
2018-03-29T06:58:05.830Z,8.13
2018-03-29T06:58:46.270Z,8.14
2018-03-29T06:59:26.763Z,8.32
2018-03-29T07:00:07.171Z,8.31
2018-03-29T07:00:47.616Z,8.37
2018-03-29T07:01:28.029Z,8.29
2018-03-29T07:02:08.465Z,8.36
2018-03-29T07:02:48.911Z,8.34
2018-03-29T07:03:29.352Z,8.29
2018-03-29T07:04:09.743Z,8.31
2018-03-29T07:04:50.164Z,8.29
2018-03-29T07:05:30.561Z,8.31
2018-03-29T07:06:10.981Z,8.32
2018-03-29T07:06:51.396Z,8.32
2018-03-29T07:07:32.020Z,8.36
2018-03-29T07:08:12.446Z,8.39
2018-03-29T07:08:52.871Z,8.39
2018-03-29T07:09:33.279Z,8.39
2018-03-29T07:10:13.669Z,8.31
2018-03-29T07:10:54.086Z,8.45
2018-03-29T07:11:34.489Z,8.43
2018-03-29T07:13:47.084Z,8.42
2018-03-29T07:14:27.480Z,8.54
2018-03-29T07:15:08.021Z,8.39
2018-03-29T07:15:48.436Z,8.47
2018-03-29T07:16:28.844Z,8.5
2018-03-29T07:17:09.263Z,8.52
2018-03-29T07:17:49.682Z,8.47
2018-03-29T07:18:30.076Z,8.46
2018-03-29T07:19:10.539Z,8.52
2018-03-29T07:19:50.896Z,8.57
2018-03-29T07:21:43.506Z,8.54
2018-03-29T07:22:23.703Z,8.49
2018-03-29T07:23:04.135Z,8.58
2018-03-29T07:23:44.560Z,8.58
2018-03-29T07:24:25.185Z,8.57
2018-03-29T07:25:05.608Z,8.52
2018-03-29T07:25:46.004Z,8.49
2018-03-29T07:26:26.415Z,8.45
2018-03-29T07:27:06.860Z,8.55
2018-03-29T07:27:47.263Z,8.42
2018-03-29T07:28:27.709Z,8.54
2018-03-29T07:29:08.093Z,8.6
2018-03-29T07:29:48.551Z,8.57
2018-03-29T07:30:29.031Z,8.6
2018-03-29T07:31:09.510Z,8.46
2018-03-29T07:31:50.423Z,8.45
2018-03-29T07:32:30.858Z,8.55
2018-03-29T07:33:11.275Z,8.47
2018-03-29T07:33:51.692Z,8.57
2018-03-29T07:34:32.136Z,8.45
2018-03-29T07:35:12.556Z,8.5
2018-03-29T07:35:52.941Z,8.54
2018-03-29T07:36:33.450Z,8.47
2018-03-29T07:37:13.796Z,8.47
2018-03-29T07:37:54.238Z,8.54
2018-03-29T07:38:34.609Z,8.5
2018-03-29T07:39:15.027Z,8.43
2018-03-29T07:39:55.418Z,8.43
2018-03-29T07:41:43.706Z,8.43
2018-03-29T07:42:24.052Z,8.4
2018-03-29T07:43:04.471Z,8.49
2018-03-29T07:43:44.867Z,8.45
2018-03-29T07:44:25.283Z,8.47
2018-03-29T07:45:05.673Z,8.37
2018-03-29T07:45:46.076Z,8.5
2018-03-29T07:46:26.513Z,8.55
2018-03-29T07:47:06.939Z,8.39
2018-03-29T07:47:47.519Z,8.49
2018-03-29T07:48:27.919Z,8.43
2018-03-29T07:49:08.342Z,8.58
2018-03-29T07:49:50.546Z,8.58
2018-03-29T07:50:30.241Z,8.7
2018-03-29T07:51:10.665Z,8.67
2018-03-29T07:51:51.089Z,8.7
2018-03-29T07:52:31.534Z,8.64
2018-03-29T07:53:12.166Z,8.7
2018-03-29T07:53:52.552Z,8.65
2018-03-29T07:54:32.948Z,8.67
2018-03-29T07:55:13.345Z,8.65
2018-03-29T07:55:53.747Z,8.75
2018-03-29T07:56:34.158Z,8.7
2018-03-29T07:57:14.721Z,8.7
2018-03-29T07:57:55.182Z,8.54
2018-03-29T07:58:35.605Z,8.54
2018-03-29T07:59:16.042Z,8.54
2018-03-29T07:59:56.445Z,8.52
2018-03-29T08:00:36.817Z,8.47
2018-03-29T08:01:17.434Z,8.42
2018-03-29T08:01:57.883Z,8.47
2018-03-29T08:02:38.277Z,8.47
2018-03-29T08:03:18.732Z,8.49
2018-03-29T08:03:59.098Z,8.46
2018-03-29T08:04:39.530Z,8.46
2018-03-29T08:05:19.984Z,8.5
2018-03-29T08:06:00.362Z,8.52
2018-03-29T08:06:40.802Z,8.61
2018-03-29T08:07:22.747Z,8.6
2018-03-29T08:08:03.209Z,8.68
2018-03-29T08:08:43.583Z,8.65
2018-03-29T08:09:24.111Z,8.68
2018-03-29T08:10:04.488Z,8.82
2018-03-29T08:10:44.939Z,8.85
2018-03-29T08:11:25.346Z,8.91
2018-03-29T08:12:05.747Z,8.96
2018-03-29T08:12:46.199Z,8.97
2018-03-29T08:13:26.607Z,9.03
2018-03-29T08:14:07.037Z,9.08
2018-03-29T08:14:47.464Z,9.06
2018-03-29T08:15:27.920Z,9.19
2018-03-29T08:16:08.308Z,9.27
2018-03-29T08:16:48.722Z,9.27
2018-03-29T08:17:29.145Z,9.34
2018-03-29T08:18:09.575Z,9.24
2018-03-29T08:18:49.937Z,9.2
2018-03-29T08:19:31.825Z,9.37
2018-03-29T08:20:12.125Z,9.3
2018-03-29T08:20:52.517Z,9.26
2018-03-29T08:21:32.933Z,9.31
2018-03-29T08:22:13.337Z,9.37
2018-03-29T08:22:53.781Z,9.45
2018-03-29T08:23:34.887Z,9.45
2018-03-29T08:24:16.145Z,9.34
2018-03-29T08:24:56.554Z,9.41
2018-03-29T08:25:36.961Z,9.42
2018-03-29T08:26:17.332Z,9.56
2018-03-29T08:26:57.754Z,9.56
2018-03-29T08:27:38.312Z,9.62
2018-03-29T08:28:18.774Z,9.63
2018-03-29T08:30:18.279Z,9.62
2018-03-29T08:31:04.790Z,9.68
2018-03-29T08:32:53.654Z,9.75
2018-03-29T08:33:34.649Z,9.8
2018-03-29T08:34:14.836Z,9.89
2018-03-29T08:34:55.238Z,9.83
2018-03-29T08:35:35.634Z,9.91
2018-03-29T08:36:16.495Z,9.96
2018-03-29T08:36:56.897Z,9.93
2018-03-29T08:37:37.362Z,9.91
2018-03-29T08:38:17.791Z,9.86
2018-03-29T08:38:58.802Z,9.75
2018-03-29T08:39:39.243Z,9.8
2018-03-29T08:40:19.754Z,9.71
2018-03-29T08:41:00.083Z,9.67
2018-03-29T08:41:40.491Z,9.6
2018-03-29T08:42:21.009Z,9.65
2018-03-29T08:43:01.436Z,9.56
2018-03-29T08:43:41.863Z,9.62
2018-03-29T08:45:36.889Z,9.7
2018-03-29T08:47:10.285Z,9.73
2018-03-29T08:47:50.309Z,9.8
2018-03-29T08:48:30.845Z,9.78
2018-03-29T08:49:11.548Z,9.78
2018-03-29T08:49:52.004Z,9.91
2018-03-29T08:50:32.422Z,9.91
2018-03-29T08:51:12.987Z,9.99
2018-03-29T08:51:53.367Z,10.01
2018-03-29T08:52:33.774Z,10.02
2018-03-29T08:53:14.552Z,10.01
2018-03-29T08:53:56.478Z,10.06
2018-03-29T08:54:37.010Z,10.01
2018-03-29T08:55:17.542Z,10.11
2018-03-29T08:55:58.467Z,10.17
2018-03-29T08:56:38.931Z,10.32
2018-03-29T08:57:19.329Z,10.28
2018-03-29T08:57:59.730Z,10.44
2018-03-29T08:58:40.217Z,10.43
2018-03-29T08:59:21.507Z,10.46
2018-03-29T09:00:03.890Z,10.6
2018-03-29T09:00:43.614Z,10.49
2018-03-29T09:01:24.038Z,10.6
2018-03-29T09:02:04.650Z,10.72
2018-03-29T09:02:45.219Z,10.66
2018-03-29T09:03:25.939Z,10.98
2018-03-29T09:04:06.474Z,10.9
2018-03-29T09:04:46.734Z,10.98
2018-03-29T09:05:28.958Z,11.06
2018-03-29T09:06:09.458Z,11.05
2018-03-29T09:06:50.012Z,11.12
2018-03-29T09:07:30.659Z,11.12
2018-03-29T09:08:11.573Z,11.06
2018-03-29T09:08:53.656Z,11.11
2018-03-29T09:09:33.977Z,11.13
2018-03-29T09:10:14.387Z,11.16
2018-03-29T09:10:55.634Z,11.13
2018-03-29T09:11:36.052Z,11.13
2018-03-29T09:12:16.817Z,11.33
2018-03-29T09:12:57.179Z,11.54
2018-03-29T09:13:38.903Z,11.57
2018-03-29T09:15:35.892Z,11.64
2018-03-29T09:16:16.283Z,11.82
2018-03-29T09:16:58.172Z,12.03
2018-03-29T09:17:38.639Z,12.11
2018-03-29T09:18:19.719Z,12.18
2018-03-29T09:19:00.156Z,12.31
2018-03-29T09:19:41.583Z,12.3
2018-03-29T09:20:21.938Z,12.26
2018-03-29T09:21:02.367Z,12.33
2018-03-29T09:21:42.999Z,12.34
2018-03-29T09:22:23.349Z,12.38
2018-03-29T09:23:04.944Z,12.46
2018-03-29T09:23:45.533Z,12.46
2018-03-29T09:24:27.852Z,12.58
2018-03-29T09:26:08.081Z,12.61
2018-03-29T09:26:50.860Z,12.56
2018-03-29T09:27:32.129Z,12.55
2018-03-29T09:28:12.633Z,12.52
2018-03-29T09:28:53.310Z,12.38
2018-03-29T09:29:33.759Z,12.48
2018-03-29T09:30:14.943Z,12.46
2018-03-29T09:30:55.451Z,12.46
2018-03-29T09:31:35.964Z,12.52
2018-03-29T09:32:16.345Z,12.55
2018-03-29T09:32:56.819Z,12.59
2018-03-29T09:33:37.177Z,12.56
2018-03-29T09:34:17.634Z,12.59
2018-03-29T09:34:59.221Z,12.46
2018-03-29T09:36:53.320Z,12.46
2018-03-29T09:37:33.148Z,12.58
2018-03-29T09:38:13.538Z,12.62
2018-03-29T09:38:54.251Z,12.77
2018-03-29T09:39:34.685Z,12.81
2018-03-29T09:40:15.085Z,12.88
2018-03-29T09:40:55.550Z,13.19
2018-03-29T09:41:36.764Z,13.48
2018-03-29T09:42:17.093Z,13.87
2018-03-29T09:42:57.529Z,14.2
2018-03-29T09:43:38.602Z,14.49
2018-03-29T09:44:19.013Z,14.61
2018-03-29T09:44:59.501Z,14.63
2018-03-29T09:45:40.263Z,14.85
2018-03-29T09:46:20.389Z,15
2018-03-29T09:47:00.846Z,15.22
2018-03-29T09:48:48.426Z,15.62
2018-03-29T09:49:32.593Z,15.51
2018-03-29T09:50:12.804Z,15.59
2018-03-29T09:50:53.234Z,15.59
2018-03-29T09:51:33.665Z,15.66
2018-03-29T09:52:14.065Z,15.95
2018-03-29T09:52:54.939Z,16.08
2018-03-29T09:53:35.445Z,16.18
2018-03-29T09:54:15.918Z,16.4
2018-03-29T09:54:56.430Z,16.32
2018-03-29T09:55:36.877Z,16.45
2018-03-29T09:56:17.558Z,16.59
2018-03-29T09:56:57.932Z,16.55
2018-03-29T09:57:38.322Z,16.7
2018-03-29T09:58:18.846Z,16.82
2018-03-29T09:58:59.170Z,17.05
2018-03-29T09:59:39.672Z,16.99
2018-03-29T10:00:20.849Z,17.03